createdAt,value
2023-05-19T00:01:00.660Z,11.86
2023-05-19T00:03:28.921Z,11.86
2023-05-19T00:05:57.431Z,11.85
2023-05-19T00:08:25.795Z,11.85
2023-05-19T00:10:53.825Z,11.83
2023-05-19T00:13:22.023Z,11.77
2023-05-19T00:15:51.063Z,11.69
2023-05-19T00:18:18.947Z,11.68
2023-05-19T00:20:46.738Z,11.64
2023-05-19T00:23:14.539Z,11.62
2023-05-19T00:25:42.978Z,11.57
2023-05-19T00:28:10.858Z,11.54
2023-05-19T00:30:38.605Z,11.52
2023-05-19T00:33:06.399Z,11.51
2023-05-19T00:35:34.344Z,11.50
2023-05-19T00:38:02.223Z,11.50
2023-05-19T00:40:32.194Z,11.51
2023-05-19T00:43:00.557Z,11.52
2023-05-19T00:45:29.084Z,11.49
2023-05-19T00:47:57.229Z,11.48
2023-05-19T00:50:25.155Z,11.49
2023-05-19T00:52:53.303Z,11.48
2023-05-19T00:55:28.275Z,11.47
2023-05-19T00:57:57.016Z,11.46
2023-05-19T01:00:24.816Z,11.47
2023-05-19T01:02:54.216Z,11.47
2023-05-19T01:05:22.671Z,11.47
2023-05-19T01:07:56.491Z,11.45
2023-05-19T01:10:24.377Z,11.43
2023-05-19T01:12:52.253Z,11.43
2023-05-19T01:15:20.266Z,11.39
2023-05-19T01:17:56.036Z,11.36
2023-05-19T01:20:36.042Z,11.33
2023-05-19T01:23:15.136Z,11.32
2023-05-19T01:26:09.800Z,11.29
2023-05-19T01:28:56.702Z,11.27
2023-05-19T01:31:26.813Z,11.25
2023-05-19T01:33:55.269Z,11.21
2023-05-19T01:36:23.591Z,11.20
2023-05-19T01:38:53.974Z,11.21
2023-05-19T01:41:23.068Z,11.23
2023-05-19T01:43:51.396Z,11.24
2023-05-19T01:46:19.377Z,11.24
2023-05-19T01:48:48.370Z,11.20
2023-05-19T01:51:16.274Z,11.17
2023-05-19T01:53:44.172Z,11.16
2023-05-19T01:56:21.613Z,11.15
2023-05-19T01:58:57.756Z,11.15
2023-05-19T02:01:52.042Z,11.15
2023-05-19T02:04:49.323Z,11.15
2023-05-19T02:07:42.685Z,11.14
2023-05-19T02:10:14.758Z,11.14
2023-05-19T02:12:44.891Z,11.14
2023-05-19T02:15:18.113Z,11.15
2023-05-19T02:17:50.729Z,11.16
2023-05-19T02:20:18.997Z,11.16
2023-05-19T02:22:46.807Z,11.17
2023-05-19T02:25:14.735Z,11.18
2023-05-19T02:27:42.589Z,11.17
2023-05-19T02:30:10.973Z,11.17
2023-05-19T02:32:38.787Z,11.18
2023-05-19T02:35:06.816Z,11.21
2023-05-19T02:37:35.462Z,11.22
2023-05-19T02:40:04.227Z,11.22
2023-05-19T02:42:32.054Z,11.23
2023-05-19T02:45:00.911Z,11.24
2023-05-19T02:47:28.725Z,11.26
2023-05-19T02:49:56.531Z,11.25
2023-05-19T02:52:24.326Z,11.27
2023-05-19T02:54:52.129Z,11.28
2023-05-19T02:57:19.988Z,11.28
2023-05-19T02:59:48.050Z,11.29
2023-05-19T03:02:15.933Z,11.27
2023-05-19T03:04:43.964Z,11.25
2023-05-19T03:07:13.577Z,11.25
2023-05-19T03:09:41.724Z,11.25
2023-05-19T03:12:09.501Z,11.24
2023-05-19T03:14:38.689Z,11.27
2023-05-19T03:17:10.408Z,11.28
2023-05-19T03:19:38.207Z,11.28
2023-05-19T03:22:06.606Z,11.29
2023-05-19T03:24:34.519Z,11.29
2023-05-19T03:27:02.789Z,11.28
2023-05-19T03:29:31.146Z,11.30
2023-05-19T03:31:59.991Z,11.29
2023-05-19T03:34:27.960Z,11.29
2023-05-19T03:36:55.808Z,11.26
2023-05-19T03:39:23.676Z,11.27
2023-05-19T03:41:51.580Z,11.27
2023-05-19T03:44:19.496Z,11.26
2023-05-19T03:46:47.277Z,11.26
2023-05-19T03:49:28.845Z,11.25
2023-05-19T03:52:14.105Z,11.26
2023-05-19T03:54:42.799Z,11.25
2023-05-19T03:57:13.849Z,11.23
2023-05-19T03:59:41.972Z,11.22
2023-05-19T04:02:09.780Z,11.23
2023-05-19T04:04:38.185Z,11.24
2023-05-19T04:07:07.206Z,11.27
2023-05-19T04:09:35.751Z,11.29
2023-05-19T04:12:03.719Z,11.31
2023-05-19T04:14:31.442Z,11.33
2023-05-19T04:16:59.936Z,11.32
2023-05-19T04:19:27.983Z,11.30
2023-05-19T04:21:57.099Z,11.33
2023-05-19T04:24:24.958Z,11.36
2023-05-19T04:26:53.316Z,11.39
2023-05-19T04:29:23.501Z,11.45
2023-05-19T04:31:52.860Z,11.44
2023-05-19T04:34:20.856Z,11.46
2023-05-19T04:36:51.003Z,11.49
2023-05-19T04:39:21.706Z,11.54
2023-05-19T04:41:49.555Z,11.58
2023-05-19T04:44:18.479Z,11.65
2023-05-19T04:46:46.394Z,11.70
2023-05-19T04:49:14.688Z,11.73
2023-05-19T04:51:42.567Z,11.77
2023-05-19T04:54:10.417Z,11.79
2023-05-19T04:56:38.127Z,11.79
2023-05-19T04:59:06.994Z,11.76
2023-05-19T05:01:35.604Z,11.76
2023-05-19T05:04:03.724Z,11.75
2023-05-19T05:06:31.858Z,11.73
2023-05-19T05:09:03.982Z,11.72
2023-05-19T05:11:32.100Z,11.73
2023-05-19T05:14:00.201Z,11.73
2023-05-19T05:16:28.346Z,11.74
2023-05-19T05:18:57.595Z,11.75
2023-05-19T05:21:26.244Z,11.80
2023-05-19T05:23:54.620Z,11.89
2023-05-19T05:26:23.350Z,11.94
2023-05-19T05:28:51.133Z,11.97
2023-05-19T05:31:19.026Z,11.97
2023-05-19T05:33:46.873Z,11.99
2023-05-19T05:36:14.818Z,12.02
2023-05-19T05:38:43.126Z,12.04
2023-05-19T05:41:11.609Z,12.06
2023-05-19T05:43:39.962Z,12.07
2023-05-19T05:46:08.171Z,12.13
2023-05-19T05:48:37.086Z,12.20
2023-05-19T05:51:06.131Z,12.25
2023-05-19T05:53:40.706Z,12.29
2023-05-19T05:56:10.839Z,12.31
2023-05-19T05:58:41.077Z,12.33
2023-05-19T06:01:11.872Z,12.39
2023-05-19T06:03:45.067Z,12.43
2023-05-19T06:06:13.388Z,12.49
2023-05-19T06:08:41.281Z,12.60
2023-05-19T06:11:09.465Z,12.72
2023-05-19T06:13:37.559Z,12.76
2023-05-19T06:16:06.210Z,12.79
2023-05-19T06:18:34.007Z,12.81
2023-05-19T06:21:01.890Z,12.86
2023-05-19T06:23:30.906Z,12.92
2023-05-19T06:25:58.803Z,12.99
2023-05-19T06:28:26.601Z,13.03
2023-05-19T06:30:54.418Z,13.10
2023-05-19T06:33:22.250Z,13.17
2023-05-19T06:35:50.138Z,13.25
2023-05-19T06:38:18.234Z,13.32
2023-05-19T06:40:46.056Z,13.33
2023-05-19T06:43:13.845Z,13.32
2023-05-19T06:45:41.585Z,13.31
2023-05-19T06:48:09.456Z,13.24
2023-05-19T06:50:37.519Z,13.23
2023-05-19T06:53:06.141Z,13.14
2023-05-19T06:55:37.132Z,13.12
2023-05-19T06:58:10.489Z,13.11
2023-05-19T07:00:38.338Z,13.09
2023-05-19T07:03:06.375Z,13.04
2023-05-19T07:05:34.204Z,12.99
2023-05-19T07:08:02.150Z,12.95
2023-05-19T07:10:32.226Z,12.90
2023-05-19T07:13:00.192Z,12.89
2023-05-19T07:15:28.021Z,12.90
2023-05-19T07:17:55.908Z,12.92
2023-05-19T07:20:23.721Z,12.92
2023-05-19T07:22:51.598Z,12.94
2023-05-19T07:25:22.188Z,12.99
2023-05-19T07:27:51.883Z,13.03
2023-05-19T07:30:19.596Z,13.07
2023-05-19T07:32:47.480Z,13.12
2023-05-19T07:35:15.595Z,13.12
2023-05-19T07:37:43.490Z,13.17
2023-05-19T07:40:11.646Z,13.25
2023-05-19T07:42:39.420Z,13.30
2023-05-19T07:45:07.942Z,13.31
2023-05-19T07:47:35.724Z,13.38
2023-05-19T07:50:04.531Z,13.41
2023-05-19T07:52:32.473Z,13.36
2023-05-19T07:55:00.499Z,13.36
2023-05-19T07:57:28.334Z,13.35
2023-05-19T07:59:56.654Z,13.35
2023-05-19T08:02:24.686Z,13.30
2023-05-19T08:04:53.229Z,13.31
2023-05-19T08:07:21.078Z,13.33
2023-05-19T08:09:49.317Z,13.34
2023-05-19T08:12:17.171Z,13.39
2023-05-19T08:14:44.916Z,13.44
2023-05-19T08:17:12.754Z,13.50
2023-05-19T08:19:40.490Z,13.48
2023-05-19T08:22:08.188Z,13.49
2023-05-19T08:24:36.110Z,13.56
2023-05-19T08:27:04.895Z,13.62
2023-05-19T08:29:32.848Z,13.62
2023-05-19T08:32:02.485Z,13.63
2023-05-19T08:34:30.284Z,13.61
2023-05-19T08:36:58.289Z,13.57
2023-05-19T08:39:28.994Z,13.58
2023-05-19T08:41:56.696Z,13.56
2023-05-19T08:44:24.575Z,13.57
2023-05-19T08:46:55.411Z,13.63
2023-05-19T08:49:32.493Z,13.70
2023-05-19T08:52:17.301Z,13.73
2023-05-19T08:55:00.857Z,13.75
2023-05-19T08:57:29.090Z,13.78
2023-05-19T08:59:58.344Z,13.80
2023-05-19T09:02:27.532Z,13.83
2023-05-19T09:04:56.663Z,13.86
2023-05-19T09:07:26.197Z,13.86
2023-05-19T09:09:54.106Z,13.89
2023-05-19T09:12:23.149Z,13.88
2023-05-19T09:14:55.029Z,13.86
2023-05-19T09:17:23.574Z,13.90
2023-05-19T09:19:51.574Z,13.90
2023-05-19T09:22:20.685Z,13.90
2023-05-19T09:24:49.293Z,13.87
2023-05-19T09:27:26.275Z,13.84
2023-05-19T09:29:54.019Z,13.90
2023-05-19T09:32:26.900Z,13.98
2023-05-19T09:34:55.275Z,14.17
2023-05-19T09:37:24.470Z,14.32
2023-05-19T09:39:53.504Z,14.40
2023-05-19T09:42:30.193Z,14.46
2023-05-19T09:45:02.640Z,14.46
2023-05-19T09:47:41.442Z,14.51
2023-05-19T09:50:11.901Z,14.50
2023-05-19T09:52:41.074Z,14.43
2023-05-19T09:55:13.595Z,14.40
2023-05-19T09:57:41.712Z,14.36
2023-05-19T10:00:19.926Z,14.34
2023-05-19T10:02:48.872Z,14.36
2023-05-19T10:05:20.397Z,14.37
2023-05-19T10:07:52.993Z,14.41
2023-05-19T10:10:22.870Z,14.43
2023-05-19T10:12:50.998Z,14.42
2023-05-19T10:15:29.901Z,14.47
2023-05-19T10:17:59.563Z,14.50
2023-05-19T10:20:28.799Z,14.53
2023-05-19T10:22:57.810Z,14.56
2023-05-19T10:25:25.799Z,14.65
2023-05-19T10:27:59.747Z,14.71
2023-05-19T10:30:34.577Z,14.77
2023-05-19T10:33:07.772Z,14.83
2023-05-19T10:36:09.204Z,14.91
2023-05-19T10:38:48.274Z,15.00
2023-05-19T10:41:34.071Z,15.13
2023-05-19T10:44:21.397Z,15.28
2023-05-19T10:46:49.181Z,15.49
2023-05-19T10:49:23.338Z,15.73
2023-05-19T10:51:56.698Z,15.81
2023-05-19T10:54:46.553Z,15.84
2023-05-19T10:57:17.487Z,15.90
2023-05-19T10:59:45.436Z,16.00
2023-05-19T11:02:41.534Z,16.04
2023-05-19T11:05:18.066Z,16.12
2023-05-19T11:07:57.354Z,16.19
2023-05-19T11:10:27.369Z,16.14
2023-05-19T11:15:27.954Z,16.26
2023-05-19T11:17:56.156Z,16.42
2023-05-19T11:20:28.904Z,16.50
2023-05-19T11:23:14.681Z,16.43
2023-05-19T11:25:51.282Z,16.46
2023-05-19T11:28:25.571Z,16.44
2023-05-19T11:30:55.262Z,16.50
2023-05-19T11:33:27.136Z,16.59
2023-05-19T11:35:58.490Z,16.64
2023-05-19T11:38:28.567Z,16.67
2023-05-19T11:40:56.795Z,16.65
2023-05-19T11:43:25.921Z,16.61
2023-05-19T11:45:55.122Z,16.66
2023-05-19T11:48:23.784Z,16.70
2023-05-19T11:50:52.457Z,16.62
2023-05-19T11:53:21.065Z,16.53
2023-05-19T11:55:49.618Z,16.50
2023-05-19T11:58:17.722Z,16.55
2023-05-19T12:00:47.678Z,16.54
2023-05-19T12:03:17.419Z,16.53
2023-05-19T12:05:48.401Z,16.52
2023-05-19T12:08:18.910Z,16.52
2023-05-19T12:10:53.870Z,16.55
2023-05-19T12:13:22.907Z,16.61
2023-05-19T12:15:53.029Z,16.68
2023-05-19T12:18:21.589Z,16.79
2023-05-19T12:20:49.750Z,16.89
2023-05-19T12:23:17.726Z,16.97
2023-05-19T12:25:45.752Z,16.96
2023-05-19T12:28:14.020Z,16.90
2023-05-19T12:30:51.808Z,16.78
2023-05-19T12:33:19.796Z,16.83
2023-05-19T12:35:50.009Z,16.93
2023-05-19T12:38:19.799Z,17.00
2023-05-19T12:40:47.573Z,17.01
2023-05-19T12:43:22.557Z,17.01
2023-05-19T12:45:50.291Z,17.04
2023-05-19T12:48:19.108Z,17.08
2023-05-19T12:50:47.096Z,17.10
2023-05-19T12:53:15.361Z,17.06
2023-05-19T12:55:45.124Z,17.04
2023-05-19T12:58:13.713Z,17.07
2023-05-19T13:00:43.865Z,17.05
2023-05-19T13:03:17.131Z,17.01
2023-05-19T13:05:47.405Z,17.03
2023-05-19T13:08:20.336Z,17.02
2023-05-19T13:10:51.533Z,17.01
2023-05-19T13:13:19.452Z,16.90
2023-05-19T13:15:50.604Z,16.77
2023-05-19T13:18:18.925Z,16.79
2023-05-19T13:20:49.312Z,16.82
2023-05-19T13:23:17.277Z,16.86
2023-05-19T13:25:45.473Z,16.94
2023-05-19T13:28:16.170Z,16.98
2023-05-19T13:30:45.034Z,16.95
2023-05-19T13:33:12.978Z,16.82
2023-05-19T13:35:40.896Z,16.72
2023-05-19T13:38:10.278Z,16.68
2023-05-19T13:40:40.230Z,16.57
2023-05-19T13:43:09.025Z,16.55
2023-05-19T13:45:37.124Z,16.56
2023-05-19T13:48:07.298Z,16.56
2023-05-19T13:50:35.740Z,16.54
2023-05-19T13:53:03.887Z,16.53
2023-05-19T13:55:32.735Z,16.56
2023-05-19T13:58:00.714Z,16.56
2023-05-19T14:00:28.563Z,16.61
2023-05-19T14:02:56.689Z,16.67
2023-05-19T14:05:24.524Z,16.70
2023-05-19T14:07:52.483Z,16.72
2023-05-19T14:10:21.894Z,16.73
2023-05-19T14:13:25.310Z,16.77
2023-05-19T14:15:38.479Z,16.81
2023-05-19T14:18:07.393Z,16.86
2023-05-19T14:20:36.199Z,16.89
2023-05-19T14:23:04.392Z,16.86
2023-05-19T14:25:32.409Z,16.81
2023-05-19T14:28:00.302Z,16.74
2023-05-19T14:30:28.159Z,16.72
2023-05-19T14:32:56.355Z,16.68
2023-05-19T14:35:25.354Z,16.64
2023-05-19T14:37:53.313Z,16.55
2023-05-19T14:40:21.349Z,16.47
2023-05-19T14:42:49.000Z,16.44
2023-05-19T14:45:16.888Z,16.43
2023-05-19T14:47:44.689Z,16.44
2023-05-19T14:50:12.494Z,16.47
2023-05-19T14:52:42.917Z,16.48
2023-05-19T14:55:11.453Z,16.50
2023-05-19T14:57:39.187Z,16.54
2023-05-19T15:00:09.254Z,16.59
2023-05-19T15:02:37.031Z,16.62
2023-05-19T15:05:05.268Z,16.64
2023-05-19T15:07:33.132Z,16.67
2023-05-19T15:10:02.091Z,16.70
2023-05-19T15:12:30.254Z,16.69
2023-05-19T15:14:58.112Z,16.66
2023-05-19T15:17:26.029Z,16.64
2023-05-19T15:19:53.923Z,16.62
2023-05-19T15:22:21.644Z,16.61
2023-05-19T15:24:49.846Z,16.62
2023-05-19T15:27:17.681Z,16.62
2023-05-19T15:29:46.338Z,16.62
2023-05-19T15:32:15.699Z,16.58
2023-05-19T15:34:44.964Z,16.58
2023-05-19T15:37:12.958Z,16.57
2023-05-19T15:39:40.746Z,16.55
2023-05-19T15:42:08.639Z,16.51
2023-05-19T15:44:36.676Z,16.49
2023-05-19T15:47:04.587Z,16.46
2023-05-19T15:49:32.278Z,16.44
2023-05-19T15:51:59.985Z,16.43
2023-05-19T15:54:27.672Z,16.40
2023-05-19T15:56:55.482Z,16.39
2023-05-19T15:59:23.362Z,16.32
2023-05-19T16:01:53.103Z,16.25
2023-05-19T16:04:21.356Z,16.19
2023-05-19T16:06:49.263Z,16.16
2023-05-19T16:09:16.974Z,16.14
2023-05-19T16:11:44.700Z,16.15
2023-05-19T16:14:12.427Z,16.14
2023-05-19T16:16:40.168Z,16.11
2023-05-19T16:19:08.197Z,16.09
2023-05-19T16:21:36.085Z,16.06
2023-05-19T16:24:04.231Z,16.01
2023-05-19T16:26:32.045Z,15.96
2023-05-19T16:29:00.294Z,15.94
2023-05-19T16:31:28.585Z,15.92
2023-05-19T16:33:56.821Z,15.90
2023-05-19T16:36:24.692Z,15.88
2023-05-19T16:38:53.977Z,15.88
2023-05-19T16:41:22.903Z,15.91
2023-05-19T16:43:50.965Z,15.89
2023-05-19T16:46:20.584Z,15.84
2023-05-19T16:48:49.143Z,15.83
2023-05-19T16:51:17.396Z,15.81
2023-05-19T16:53:45.689Z,15.80
2023-05-19T16:56:14.056Z,15.79
2023-05-19T16:58:42.179Z,15.76
2023-05-19T17:01:12.534Z,15.74
2023-05-19T17:03:40.789Z,15.72
2023-05-19T17:06:09.304Z,15.69
2023-05-19T17:08:37.258Z,15.66
2023-05-19T17:11:06.602Z,15.64
2023-05-19T17:13:36.515Z,15.62
2023-05-19T17:16:04.764Z,15.61
2023-05-19T17:18:32.498Z,15.59
2023-05-19T17:21:03.919Z,15.58
2023-05-19T17:23:32.619Z,15.57
2023-05-19T17:26:00.557Z,15.54
2023-05-19T17:28:29.318Z,15.52
2023-05-19T17:30:57.083Z,15.49
2023-05-19T17:33:24.828Z,15.45
2023-05-19T17:35:52.893Z,15.42
2023-05-19T17:38:20.779Z,15.40
2023-05-19T17:40:48.540Z,15.38
2023-05-19T17:43:16.326Z,15.37
2023-05-19T17:45:44.185Z,15.36
2023-05-19T17:48:12.212Z,15.35
2023-05-19T17:50:40.006Z,15.32
2023-05-19T17:53:07.967Z,15.30
2023-05-19T17:55:35.957Z,15.29
2023-05-19T17:58:03.951Z,15.26
2023-05-19T18:00:33.134Z,15.25
2023-05-19T18:03:01.930Z,15.25
2023-05-19T18:05:30.010Z,15.25
2023-05-19T18:07:59.357Z,15.20
2023-05-19T18:10:27.974Z,15.19
2023-05-19T18:12:55.737Z,15.17
2023-05-19T18:15:24.055Z,15.13
2023-05-19T18:17:51.880Z,15.10
2023-05-19T18:20:19.821Z,15.08
2023-05-19T18:22:47.598Z,15.07
2023-05-19T18:25:17.030Z,15.07
2023-05-19T18:27:49.444Z,15.05
2023-05-19T18:30:17.556Z,15.03
2023-05-19T18:32:45.459Z,15.04
2023-05-19T18:35:13.717Z,15.03
2023-05-19T18:37:41.615Z,14.98
2023-05-19T18:40:09.952Z,14.96
2023-05-19T18:42:38.150Z,14.95
2023-05-19T18:45:06.824Z,14.95
2023-05-19T18:47:35.009Z,14.94
2023-05-19T18:50:03.551Z,14.95
2023-05-19T18:52:32.503Z,14.95
2023-05-19T18:55:04.354Z,14.95
2023-05-19T18:57:32.537Z,14.92
2023-05-19T19:00:01.410Z,14.88
2023-05-19T19:02:29.609Z,14.85
2023-05-19T19:04:59.988Z,14.83
2023-05-19T19:07:30.834Z,14.83
2023-05-19T19:10:02.445Z,14.85
2023-05-19T19:12:41.419Z,14.87
2023-05-19T19:15:10.105Z,14.90
2023-05-19T19:17:42.816Z,14.93
2023-05-19T19:23:34.488Z,14.97
2023-05-19T19:26:02.354Z,14.97
2023-05-19T19:28:31.054Z,14.96
2023-05-19T19:30:58.829Z,14.96
2023-05-19T19:33:27.834Z,14.98
2023-05-19T19:35:55.585Z,14.97
2023-05-19T19:38:23.381Z,14.97
2023-05-19T19:41:58.946Z,14.96
2023-05-19T19:49:14.555Z,14.94
2023-05-19T20:04:29.905Z,14.95
2023-05-19T23:38:55.948Z,14.54
